Map

Track Data

SID SEASON NUMBER BASIN SUBBASIN NAME ISO_TIME NATURE LAT LON WMO_WIND WMO_PRES WMO_AGENCY TRACK_TYPE DIST2LAND LANDFALL IFLAG USA_AGENCY USA_ATCF_ID USA_LAT USA_LON USA_RECORD USA_STATUS USA_WIND USA_PRES USA_SSHS USA_R34_NE USA_R34_SE USA_R34_SW USA_R34_NW USA_R50_NE USA_R50_SE USA_R50_SW USA_R50_NW USA_R64_NE USA_R64_SE USA_R64_SW USA_R64_NW USA_POCI USA_ROCI USA_RMW USA_EYE TOKYO_LAT TOKYO_LON TOKYO_GRADE TOKYO_WIND TOKYO_PRES TOKYO_R50_DIR TOKYO_R50_LONG TOKYO_R50_SHORT TOKYO_R30_DIR TOKYO_R30_LONG TOKYO_R30_SHORT TOKYO_LAND CMA_LAT CMA_LON CMA_CAT CMA_WIND CMA_PRES HKO_LAT HKO_LON HKO_CAT HKO_WIND HKO_PRES NEWDELHI_LAT NEWDELHI_LON NEWDELHI_GRADE NEWDELHI_WIND NEWDELHI_PRES NEWDELHI_CI NEWDELHI_DP NEWDELHI_POCI REUNION_LAT REUNION_LON REUNION_TYPE REUNION_WIND REUNION_PRES REUNION_TNUM REUNION_CI REUNION_RMW REUNION_R34_NE REUNION_R34_SE REUNION_R34_SW REUNION_R34_NW REUNION_R50_NE REUNION_R50_SE REUNION_R50_SW REUNION_R50_NW REUNION_R64_NE REUNION_R64_SE REUNION_R64_SW REUNION_R64_NW BOM_LAT BOM_LON BOM_TYPE BOM_WIND BOM_PRES BOM_TNUM BOM_CI BOM_RMW BOM_R34_NE BOM_R34_SE BOM_R34_SW BOM_R34_NW BOM_R50_NE BOM_R50_SE BOM_R50_SW BOM_R50_NW BOM_R64_NE BOM_R64_SE BOM_R64_SW BOM_R64_NW BOM_ROCI BOM_POCI BOM_EYE BOM_POS_METHOD BOM_PRES_METHOD NADI_LAT NADI_LON NADI_CAT NADI_WIND NADI_PRES WELLINGTON_LAT WELLINGTON_LON WELLINGTON_WIND WELLINGTON_PRES DS824_LAT DS824_LON DS824_STAGE DS824_WIND DS824_PRES TD9636_LAT TD9636_LON TD9636_STAGE TD9636_WIND TD9636_PRES TD9635_LAT TD9635_LON TD9635_WIND TD9635_PRES TD9635_ROCI NEUMANN_LAT NEUMANN_LON NEUMANN_CLASS NEUMANN_WIND NEUMANN_PRES MLC_LAT MLC_LON MLC_CLASS MLC_WIND MLC_PRES USA_GUST BOM_GUST BOM_GUST_PER REUNION_GUST REUNION_GUST_PER USA_SEAHGT USA_SEARAD_NE USA_SEARAD_SE USA_SEARAD_SW USA_SEARAD_NW STORM_SPEED STORM_DIR
1888052S15056 1888 15 SI MM NOT_NAMED 1888-02-21 06:00:00 NR -14.9000 55.6000 reunion main 548 538 _____O________ -1 -14.9000 55.6000 99 9.90000 3 250
1888052S15056 1888 15 SI MM NOT_NAMED 1888-02-21 09:00:00 NR -14.9521 55.4519 main 537 516 _____P________ -1 -14.9521 55.4519 99 3 249
1888052S15056 1888 15 SI MM NOT_NAMED 1888-02-21 12:00:00 NR -15.0136 55.2931 main 516 494 _____P________ -1 -15.0136 55.2931 99 4 247
1888052S15056 1888 15 SI MM NOT_NAMED 1888-02-21 15:00:00 NR -15.0937 55.1127 main 494 483 _____P________ -1 -15.0937 55.1127 99 3 235
1888052S15056 1888 15 SI MM NOT_NAMED 1888-02-21 18:00:00 NR -15.2015 55.0198 main 483 461 _____P____O___ -1 -15.2018 54.8997 99 -15.2000 55.5000 7 4 229
1888052S15056 1888 15 SI MM NOT_NAMED 1888-02-21 21:00:00 NR -15.3718 54.7780 main 461 429 _____P____P___ -1 -15.3473 54.6433 99 -15.4209 55.0474 7 7 235
1888052S15056 1888 15 SI MM NOT_NAMED 1888-02-22 00:00:00 NR -15.5881 54.4408 main 418 388 _____P____P___ -1 -15.5394 54.3321 99 -15.6531 54.5856 7 9 237
1888052S15056 1888 15 SI MM NOT_NAMED 1888-02-22 03:00:00 NR -15.8480 54.0305 main 377 341 _____P____P___ -1 -15.7872 53.9549 99 -15.9087 54.1060 7 10 237
1888052S15056 1888 15 SI MM NOT_NAMED 1888-02-22 06:00:00 NR -16.1500 53.5500 reunion main 341 294 _____O____O___ -1 -16.1000 53.5000 99 9.90000 -16.2000 53.6000 7 12 236
1888052S15056 1888 15 SI MM NOT_NAMED 1888-02-22 09:00:00 NR -16.5092 53.0112 main 294 260 _____P____P___ -1 -16.4821 52.9612 99 -16.5364 53.0613 7 13 235
1888052S15056 1888 15 SI MM NOT_NAMED 1888-02-22 12:00:00 NR -16.9184 52.4250 main 255 219 _____P____P___ -1 -16.9197 52.3561 99 -16.9172 52.4939 7 14 233
1888052S15056 1888 15 SI MM NOT_NAMED 1888-02-22 15:00:00 NR -17.3669 51.8065 main 222 180 _____P____P___ -1 -17.3945 51.7084 99 -17.3394 51.9046 7 15 232
1888052S15056 1888 15 SI MM NOT_NAMED 1888-02-22 18:00:00 NR -17.8441 51.1712 main 180 116 _____P____O___ -1 -17.8883 51.0425 99 -17.8000 51.3000 7 16 231
1888052S15056 1888 15 SI MM NOT_NAMED 1888-02-22 21:00:00 NR -18.3650 50.4989 main 118 74 _____P____P___ -1 -18.3831 50.3830 99 -18.3469 50.6147 7 16 230
1888052S15056 1888 15 SI MM NOT_NAMED 1888-02-23 00:00:00 NR -18.8902 49.8408 main 67 33 _____P____P___ -1 -18.8614 49.7555 99 -18.9190 49.9261 7 16 229
1888052S15056 1888 15 SI MM NOT_NAMED 1888-02-23 03:00:00 NR -19.3812 49.2424 main 30 0 _____P____P___ -1 -19.3060 49.1858 99 -19.4564 49.2991 7 14 229
1888052S15056 1888 15 SI MM NOT_NAMED 1888-02-23 06:00:00 NR -19.8000 48.7500 reunion main 0 0 _____O____O___ -1 -19.7000 48.7000 99 9.90000 -19.9000 48.8000 7 10 227
1888052S15056 1888 15 SI MM NOT_NAMED 1888-02-23 09:00:00 NR -20.0761 48.4381 main 0 0 _____P____P___ -1 -19.9781 48.3692 99 -20.1742 48.5070 7 7 225
1888052S15056 1888 15 SI MM NOT_NAMED 1888-02-23 12:00:00 NR -20.2829 48.2316 main 0 0 _____P____P___ -1 -20.2125 48.1159 99 -20.3533 48.3473 7 5 221
1888052S15056 1888 15 SI MM NOT_NAMED 1888-02-23 15:00:00 NR -20.4466 48.0965 main 0 0 _____P____P___ -1 -20.4123 47.9290 99 -20.4809 48.2640 7 4 215
1888052S15056 1888 15 SI MM NOT_NAMED 1888-02-23 18:00:00 NR -20.5932 47.9987 main 0 0 _____P____O___ -1 -20.5864 47.7974 99 -20.6000 48.2000 7 4 213
1888052S15056 1888 15 SI MM NOT_NAMED 1888-02-23 21:00:00 NR -20.7552 47.8848 main 0 0 _____P____P___ -1 -20.7435 47.7101 99 -20.7669 48.0596 7 4 211
1888052S15056 1888 15 SI MM NOT_NAMED 1888-02-24 00:00:00 NR -20.9137 47.7915 main 0 0 _____P____P___ -1 -20.8924 47.6556 99 -20.9350 47.9274 7 4 206
1888052S15056 1888 15 SI MM NOT_NAMED 1888-02-24 03:00:00 NR -21.0762 47.7146 main 0 0 _____P____P___ -1 -21.0417 47.6227 99 -21.1106 47.8065 7 4 201
1888052S15056 1888 15 SI MM NOT_NAMED 1888-02-24 06:00:00 NR -21.2500 47.6500 reunion main 0 0 _____O____O___ -1 -21.2000 47.6000 99 9.90000 -21.3000 47.7000 7 4 203
1888052S15056 1888 15 SI MM NOT_NAMED 1888-02-24 09:00:00 NR -21.4530 47.5431 main 0 0 _____P____P___ -1 -21.3914 47.4917 99 -21.5147 47.5944 7 5 204
1888052S15056 1888 15 SI MM NOT_NAMED 1888-02-24 12:00:00 NR -21.6640 47.4513 main 0 0 _____P____P___ -1 -21.5856 47.3974 99 -21.7425 47.5051 7 5 200
1888052S15056 1888 15 SI MM NOT_NAMED 1888-02-24 15:00:00 NR -21.8791 47.3801 main 0 0 _____P____P___ -1 -21.7842 47.3220 99 -21.9741 47.4382 7 4 193
1888052S15056 1888 15 SI MM NOT_NAMED 1888-02-24 18:00:00 NR -22.0944 47.3352 main 0 0 _____P____O___ -1 -21.9888 47.2703 99 -22.2000 47.4000 7 4 190
1888052S15056 1888 15 SI MM NOT_NAMED 1888-02-24 21:00:00 NR -22.2898 47.3017 main 0 0 _____P____P___ -1 -22.2011 47.2473 99 -22.3786 47.3561 7 4 185
1888052S15056 1888 15 SI MM NOT_NAMED 1888-02-25 00:00:00 NR -22.4887 47.3019 main 0 0 _____P____P___ -1 -22.4227 47.2579 99 -22.5547 47.3459 7 4 174
1888052S15056 1888 15 SI MM NOT_NAMED 1888-02-25 03:00:00 NR -22.7043 47.3474 main 0 0 _____P____P___ -1 -22.6551 47.3071 99 -22.7535 47.3877 7 5 163
1888052S15056 1888 15 SI MM NOT_NAMED 1888-02-25 06:00:00 NR -22.9500 47.4500 reunion main 0 0 _____O____O___ -1 -22.9000 47.4000 99 9.90000 -23.0000 47.5000 7 6 156
1888052S15056 1888 15 SI MM NOT_NAMED 1888-02-25 09:00:00 NR -23.2543 47.6100 main 0 0 _____P____P___ -1 -23.1551 47.5100 99 -23.3535 47.7100 7 7 152
1888052S15056 1888 15 SI MM NOT_NAMED 1888-02-25 12:00:00 NR -23.5864 47.8251 main 20 20 _____P____P___ -1 -23.4223 47.6620 99 -23.7505 47.9883 7 8 147
1888052S15056 1888 15 SI MM NOT_NAMED 1888-02-25 15:00:00 NR -23.9238 48.0763 main 60 60 _____P____P___ -1 -23.7003 47.8550 99 -24.1472 48.2976 7 8 144
1888052S15056 1888 15 SI MM NOT_NAMED 1888-02-25 18:00:00 NR -24.2437 48.3440 main 84 84 _____P____O___ -1 -23.9875 48.0880 99 -24.5000 48.6000 7 7 142
1888052S15056 1888 15 SI MM NOT_NAMED 1888-02-25 21:00:00 NR -24.5018 48.5783 main 124 124 _____P____P___ -1 -24.2825 48.3600 99 -24.7210 48.7967 7 7 138
1888052S15056 1888 15 SI MM NOT_NAMED 1888-02-26 00:00:00 NR -24.7413 48.8277 main 152 152 _____P____P___ -1 -24.5839 48.6699 99 -24.8987 48.9855 7 7 135
1888052S15056 1888 15 SI MM NOT_NAMED 1888-02-26 03:00:00 NR -24.9836 49.1117 main 190 190 _____P____P___ -1 -24.8902 49.0169 99 -25.0770 49.2064 7 8 132
1888052S15056 1888 15 SI MM NOT_NAMED 1888-02-26 06:00:00 NR -25.2500 49.4500 reunion main 235 225 _____O____O___ -1 -25.2000 49.4000 99 9.90000 -25.3000 49.5000 7 9 131
1888052S15056 1888 15 SI MM NOT_NAMED 1888-02-26 09:00:00 NR -25.5834 49.8659 main 289 289 _____P____P___ -1 -25.5296 49.8159 99 -25.6373 49.9158 7 11 131
1888052S15056 1888 15 SI MM NOT_NAMED 1888-02-26 12:00:00 NR -25.9434 50.3421 main 336 336 _____P____P___ -1 -25.8663 50.2757 99 -26.0206 50.4086 7 12 129
1888052S15056 1888 15 SI MM NOT_NAMED 1888-02-26 15:00:00 NR -26.3112 50.8585 main 407 407 _____P____P___ -1 -26.2040 50.7696 99 -26.4184 50.9473 7 12 128
1888052S15056 1888 15 SI MM NOT_NAMED 1888-02-26 18:00:00 NR -26.6683 51.3940 main 469 469 _____P____O___ -1 -26.5367 51.2880 99 -26.8000 51.5000 7 12 126
1888052S15056 1888 15 SI MM NOT_NAMED 1888-02-26 21:00:00 NR -27.0000 51.9254 main 528 528 _____P____P___ -1 -26.8583 51.8206 99 -27.1417 52.0303 7 11 124
1888052S15056 1888 15 SI MM NOT_NAMED 1888-02-27 00:00:00 NR -27.3115 52.4612 main 596 596 _____P____P___ -1 -27.1631 52.3571 99 -27.4598 52.5652 7 11 122
1888052S15056 1888 15 SI MM NOT_NAMED 1888-02-27 03:00:00 NR -27.5968 52.9899 main 655 655 _____P____P___ -1 -27.4455 52.8872 99 -27.7480 53.0926 7 11 120
1888052S15056 1888 15 SI MM NOT_NAMED 1888-02-27 06:00:00 NR -27.8500 53.5000 reunion main 709 714 _____O____O___ -1 -27.7000 53.4000 99 9.90000 -28.0000 53.6000 7 10 118
1888052S15056 1888 15 SI MM NOT_NAMED 1888-02-27 09:00:00 NR -28.0716 53.9821 main 765 763 _____P____P___ -1 -27.9288 53.8833 99 -28.2143 54.0809 7 9 116
1888052S15056 1888 15 SI MM NOT_NAMED 1888-02-27 12:00:00 NR -28.2636 54.4478 main 780 777 _____P____P___ -1 -28.1331 54.3566 99 -28.3942 54.5390 7 9 114
1888052S15056 1888 15 SI MM NOT_NAMED 1888-02-27 15:00:00 NR -28.4328 54.8971 main 785 785 _____P____P___ -1 -28.3137 54.8167 99 -28.5520 54.9775 7 8 113
1888052S15056 1888 15 SI MM NOT_NAMED 1888-02-27 18:00:00 NR -28.5859 55.3300 main 805 804 _____P____O___ -1 -28.4717 55.2600 99 -28.7000 55.4000 7 8 112
1888052S15056 1888 15 SI MM NOT_NAMED 1888-02-27 21:00:00 NR -28.7284 55.7467 main 815 815 _____P____P___ -1 -28.6083 55.6834 99 -28.8484 55.8101 7 8 110
1888052S15056 1888 15 SI MM NOT_NAMED 1888-02-28 00:00:00 NR -28.8419 56.1382 main 828 828 _____P____P___ -1 -28.7245 56.0834 99 -28.9985 56.2112 7 7 107
1888052S15056 1888 15 SI MM NOT_NAMED 1888-02-28 03:00:00 NR -28.9307 56.5067 main 842 842 _____P____P___ -1 -28.8213 56.4567 99 -29.1493 56.6067 7 6 103
1888052S15056 1888 15 SI MM NOT_NAMED 1888-02-28 06:00:00 NR -28.9800 56.8400 reunion main 857 857 _____O____O___ -1 -28.9000 56.8000 99 9.90000 -29.3000 57.0000 7 5 93
1888052S15056 1888 15 SI MM NOT_NAMED 1888-02-28 09:00:00 NR -28.9618 57.1111 main 862 862 _____P________ -1 -28.9618 57.1111 99 7 5 93
1888052S15056 1888 15 SI MM NOT_NAMED 1888-02-28 12:00:00 NR -29.0089 57.3929 main 868 868 _____P________ -1 -29.0089 57.3929 99 7 5 100
1888052S15056 1888 15 SI MM NOT_NAMED 1888-02-28 15:00:00 NR -29.0433 57.6495 main 872 872 _____P________ -1 -29.0433 57.6495 99 7 4 98
1888052S15056 1888 15 SI MM NOT_NAMED 1888-02-28 18:00:00 NR -29.0673 57.8850 main 890 890 _____P________ -1 -29.0673 57.8850 99 4 96
1888052S15056 1888 15 SI MM NOT_NAMED 1888-02-28 21:00:00 NR -29.0829 58.1036 main 896 896 _____P________ -1 -29.0829 58.1036 99 4 94
1888052S15056 1888 15 SI MM NOT_NAMED 1888-02-29 00:00:00 NR -29.0922 58.3095 main 901 901 _____P________ -1 -29.0922 58.3095 99 4 92
1888052S15056 1888 15 SI MM NOT_NAMED 1888-02-29 03:00:00 NR -29.0972 58.5069 main 908 908 _____P________ -1 -29.0972 58.5069 99 3 91
1888052S15056 1888 15 SI MM NOT_NAMED 1888-02-29 06:00:00 NR -29.1000 58.7000 reunion main 914 _____O________ -1 -29.1000 58.7000 99 9.90000 3 91

About IBTrACS Database

This database is a web-friendly format of International Best Track Archive for Climate Stewardship (IBTrACS), a global best track data archive curated by NOAA dating back to 1842.

Updated: 2021-10-21